Time;durP1;ratioP1;P1;durP2;ratioP2;P2;SDS_P1;SDS_P2;PMS_P1;PMS_P2;Temp;Humidity;BMP_temperature;BMP_pressure;BME280_temperature;BME280_humidity;BME280_pressure;Samples;Min_cycle;Max_cycle;Signal;HPM_P1;HPM_P2
2022/06/09 00:06:19;;;;;;;19.58;8.55;;;;;;;21.21;50.44;99852.81;31578439;28;20048;-77
2022/06/09 00:21:22;;;;;;;15.67;8.53;;;;;;;20.71;52.95;99843.06;31577405;28;20564;-76
2022/06/09 00:36:25;;;;;;;21.23;8.80;;;;;;;20.26;56.86;99846.78;31551783;28;20052;-77
2022/06/09 00:51:35;;;;;;;16.70;8.02;;;;;;;20.02;60.17;99847.09;31569775;28;20069;-75
2022/06/09 01:06:58;;;;;;;15.15;7.63;;;;;;;19.88;62.50;99845.97;31563388;28;20480;-76
2022/06/09 01:22:06;;;;;;;14.07;7.27;;;;;;;19.85;60.61;99833.16;31597776;28;20055;-75
2022/06/09 01:37:22;;;;;;;18.60;7.97;;;;;;;19.85;61.75;99841.44;31598900;28;20062;-76
2022/06/09 01:52:26;;;;;;;16.23;7.85;;;;;;;19.65;62.19;99836.75;31558683;28;20886;-75
2022/06/09 02:07:32;;;;;;;20.83;9.77;;;;;;;19.70;63.85;99849.06;31560850;28;20475;-76
2022/06/09 02:22:36;;;;;;;18.35;9.82;;;;;;;19.80;64.65;99847.66;31572018;28;20048;-77
2022/06/09 02:37:37;;;;;;;22.83;10.80;;;;;;;19.94;65.02;99851.53;31571243;28;20412;-76
2022/06/09 02:52:41;;;;;;;22.77;11.52;;;;;;;20.13;64.62;99863.69;31569934;28;20044;-75
2022/06/09 03:07:43;;;;;;;;;;;;;;;20.26;66.42;99844.03;31563591;28;20053;-76
2022/06/09 03:22:45;;;;;;;24.45;11.27;;;;;;;20.63;65.78;99836.50;31614704;28;19924;-77
2022/06/09 03:37:47;;;;;;;23.85;14.07;;;;;;;21.13;64.01;99840.72;31551361;28;20063;-77
2022/06/09 03:52:49;;;;;;;28.30;13.18;;;;;;;21.63;63.61;99841.59;31576471;28;20052;-77
2022/06/09 04:07:51;;;;;;;30.30;13.07;;;;;;;22.04;59.51;99847.41;31588955;28;20062;-77
2022/06/09 04:22:53;;;;;;;31.38;16.60;;;;;;;22.59;56.29;99845.81;31574642;28;20048;-74
2022/06/09 04:38:01;;;;;;;40.17;17.43;;;;;;;23.33;51.86;99849.81;31569285;28;20056;-76
2022/06/09 04:53:04;;;;;;;27.23;15.77;;;;;;;24.11;50.72;99852.03;31549713;28;20408;-77
2022/06/09 05:08:07;;;;;;;29.25;13.68;;;;;;;24.90;48.64;99854.78;31573567;28;20133;-75
2022/06/09 05:23:09;;;;;;;28.48;12.57;;;;;;;25.68;45.46;99859.34;31590950;28;20060;-77
2022/06/09 05:53:36;;;;;;;37.97;15.52;;;;;;;26.24;42.42;99861.19;31544228;28;20504;-76
2022/06/09 06:08:39;;;;;;;24.75;12.65;;;;;;;26.62;41.09;99859.00;31562931;28;20423;-77
2022/06/09 06:23:42;;;;;;;17.02;7.78;;;;;;;27.28;39.86;99856.16;31566791;28;20052;-78
2022/06/09 06:38:44;;;;;;;10.55;5.10;;;;;;;27.74;37.50;99860.94;31592087;28;20052;-77
2022/06/09 06:53:46;;;;;;;7.55;3.63;;;;;;;28.00;36.40;99874.00;31597743;28;20144;-76
2022/06/09 07:08:48;;;;;;;7.07;3.60;;;;;;;28.72;35.53;99862.25;31610413;28;20052;-77
2022/06/09 07:23:51;;;;;;;3.22;2.10;;;;;;;29.06;34.83;99862.06;31568743;28;20138;-77
2022/06/09 07:38:53;;;;;;;5.25;2.28;;;;;;;28.60;34.57;99850.63;31575319;28;20139;-77
2022/06/09 07:53:55;;;;;;;7.18;3.13;;;;;;;29.45;32.80;99847.69;31595887;28;20059;-76
2022/06/09 08:09:00;;;;;;;6.47;4.55;;;;;;;29.61;31.32;99850.50;31575168;28;20549;-77
2022/06/09 08:24:02;;;;;;;5.05;3.22;;;;;;;30.26;30.36;99848.09;31559036;28;20068;-78
2022/06/09 08:39:04;;;;;;;6.57;3.95;;;;;;;30.29;28.71;99830.94;31556392;28;20060;-78
2022/06/09 08:54:23;;;;;;;8.55;3.30;;;;;;;29.80;28.81;99831.31;31553942;28;20071;-77
2022/06/09 09:09:35;;;;;;;8.30;3.10;;;;;;;29.26;29.65;99841.66;31549844;28;20075;-78
2022/06/09 09:24:56;;;;;;;6.35;2.53;;;;;;;29.47;31.84;99831.09;31587763;28;20563;-80
2022/06/09 09:40:06;;;;;;;5.33;2.17;;;;;;;29.42;31.33;99826.44;31540990;28;20044;-76
2022/06/09 09:55:26;;;;;;;;;;;;;;;31.14;29.80;99798.59;31538904;28;20040;-81
2022/06/09 10:10:28;;;;;;;3.75;2.63;;;;;;;32.19;27.05;99799.06;31538985;28;19920;-79
2022/06/09 10:26:02;;;;;;;3.63;1.98;;;;;;;31.87;27.30;99782.38;31534064;28;20545;-81
2022/06/09 10:41:10;;;;;;;3.63;1.88;;;;;;;29.72;29.83;99783.03;31581237;28;20051;-80
2022/06/09 10:56:20;;;;;;;3.85;2.35;;;;;;;31.47;27.92;99769.19;31529576;28;20510;-81
2022/06/09 11:11:36;;;;;;;4.57;2.20;;;;;;;30.19;29.21;99774.78;31559488;28;20560;-77
2022/06/09 11:27:05;;;;;;;2.22;1.67;;;;;;;30.95;28.34;99753.41;31529691;28;20055;-78
2022/06/09 11:42:37;;;;;;;2.72;1.60;;;;;;;30.33;28.94;99752.16;31574861;28;20072;-74
2022/06/09 11:57:50;;;;;;;9.00;1.85;;;;;;;29.49;30.84;99750.22;31574119;28;20055;-77
2022/06/09 12:13:13;;;;;;;4.32;1.67;;;;;;;29.96;29.72;99748.88;31548976;28;20640;-79
2022/06/09 12:28:40;;;;;;;8.23;2.92;;;;;;;29.75;29.82;99751.88;31548469;28;20052;-79
2022/06/09 12:43:53;;;;;;;4.43;1.67;;;;;;;29.18;30.14;99740.25;31539572;28;20061;-75
2022/06/09 12:58:56;;;;;;;3.10;1.80;;;;;;;29.02;30.19;99736.69;31557701;28;20087;-73
2022/06/09 13:14:02;;;;;;;8.32;4.85;;;;;;;28.94;30.40;99737.97;31537560;28;20044;-75
2022/06/09 13:29:21;;;;;;;2.40;1.52;;;;;;;29.31;29.97;99720.50;31580486;28;20098;-79
2022/06/09 13:44:28;;;;;;;5.20;2.22;;;;;;;28.99;29.93;99728.69;31568032;28;20112;-74
2022/06/09 13:59:30;;;;;;;2.67;1.92;;;;;;;28.73;30.58;99722.06;31555760;28;20054;-75
2022/06/09 14:14:32;;;;;;;3.28;1.95;;;;;;;28.35;30.52;99712.78;31545568;28;20054;-74
2022/06/09 14:29:34;;;;;;;4.85;3.50;;;;;;;28.56;30.76;99705.06;31533014;28;20064;-74
2022/06/09 14:44:36;;;;;;;22.30;13.07;;;;;;;28.15;30.63;99712.28;31524679;28;20396;-76
2022/06/09 14:59:39;;;;;;;4.25;2.40;;;;;;;27.96;30.83;99706.22;31549796;28;20511;-77
2022/06/09 15:14:41;;;;;;;6.60;4.38;;;;;;;28.01;31.15;99710.91;31574236;28;20816;-75
2022/06/09 15:29:43;;;;;;;4.95;2.28;;;;;;;28.08;31.59;99707.41;31566315;28;20534;-75
2022/06/09 15:44:45;;;;;;;3.65;2.30;;;;;;;27.76;31.67;99709.81;31611055;28;20051;-75
2022/06/09 15:59:47;;;;;;;3.33;2.33;;;;;;;27.61;32.11;99709.72;31539082;28;20048;-77
2022/06/09 16:14:49;;;;;;;3.95;1.98;;;;;;;27.46;32.13;99716.59;31568377;28;20051;-75
2022/06/09 16:29:51;;;;;;;4.57;1.65;;;;;;;27.25;32.01;99715.88;31574070;28;20507;-81
2022/06/09 16:44:56;;;;;;;3.63;2.03;;;;;;;27.05;32.17;99727.75;31557014;28;20049;-77
2022/06/09 16:59:58;;;;;;;5.35;2.50;;;;;;;26.78;32.94;99727.81;31545753;28;20064;-74
2022/06/09 17:15:00;;;;;;;3.35;2.08;;;;;;;26.49;33.36;99740.06;31555994;28;20427;-78
2022/06/09 17:30:06;;;;;;;11.20;4.47;;;;;;;26.21;33.42;99751.75;31558540;28;20048;-78
2022/06/09 17:45:08;;;;;;;11.13;5.25;;;;;;;25.91;33.53;99765.94;31558306;28;20054;-76
2022/06/09 18:00:16;;;;;;;7.03;3.30;;;;;;;25.65;33.02;99783.31;31559520;28;20413;-77
2022/06/09 18:15:18;;;;;;;6.43;3.50;;;;;;;25.30;33.27;99806.53;31557363;28;20059;-75
2022/06/09 18:30:22;;;;;;;;;;;;;;;24.83;34.19;99806.91;31567910;28;20060;-76
2022/06/09 18:45:24;;;;;;;8.27;3.30;;;;;;;24.49;34.14;99816.91;31573467;28;20303;-76
2022/06/09 19:00:26;;;;;;;5.27;2.73;;;;;;;24.21;34.12;99816.41;31558685;28;20048;-77
2022/06/09 19:15:31;;;;;;;32.93;17.47;;;;;;;24.00;34.13;99825.19;31547835;28;20036;-76
2022/06/09 19:30:38;;;;;;;8.50;3.30;;;;;;;23.75;34.51;99829.16;31559005;28;20151;-77
2022/06/09 19:45:41;;;;;;;4.63;2.40;;;;;;;23.51;34.63;99826.28;31561303;28;20048;-76
2022/06/09 20:00:44;;;;;;;5.88;2.60;;;;;;;23.21;34.71;99829.75;31578575;28;20056;-77
2022/06/09 20:15:46;;;;;;;;;;;;;;;22.99;35.51;99827.09;31573248;28;20045;-76
2022/06/09 20:30:50;;;;;;;9.90;2.53;;;;;;;22.82;35.22;99829.19;31541173;28;19936;-76
2022/06/09 20:45:58;;;;;;;4.15;2.33;;;;;;;22.75;36.05;99825.66;31584984;28;20075;-75
2022/06/09 21:01:01;;;;;;;7.85;2.67;;;;;;;22.63;36.06;99832.50;31555513;28;20059;-75
2022/06/09 21:31:26;;;;;;;7.03;2.58;;;;;;;22.33;36.49;99839.84;31566764;28;20054;-76
2022/06/09 21:46:28;;;;;;;8.80;2.60;;;;;;;22.08;37.39;99842.41;31597262;28;20058;-76
2022/06/09 22:01:30;;;;;;;4.77;2.10;;;;;;;21.86;37.87;99847.91;31607414;28;20055;-76
2022/06/09 22:16:33;;;;;;;7.77;2.20;;;;;;;21.57;38.85;99838.06;31592227;28;20072;-75
2022/06/09 22:31:35;;;;;;;7.80;2.43;;;;;;;21.35;39.08;99852.59;31584623;28;20503;-76
2022/06/09 22:46:37;;;;;;;5.68;2.38;;;;;;;21.22;39.77;99849.56;31575956;28;20075;-76
2022/06/09 23:01:39;;;;;;;7.38;2.10;;;;;;;21.08;40.25;99856.00;31573113;28;20059;-76
2022/06/09 23:16:41;;;;;;;10.68;4.10;;;;;;;20.99;40.26;99867.25;31579972;28;20052;-77
2022/06/09 23:31:44;;;;;;;3.50;1.70;;;;;;;20.91;40.23;99866.22;31584468;28;20107;-76
2022/06/09 23:46:46;;;;;;;5.22;1.75;;;;;;;20.84;40.12;99869.44;31593829;28;20052;-75
